Time;durP1;ratioP1;P1;durP2;ratioP2;P2;SDS_P1;SDS_P2;PMS_P1;PMS_P2;Temp;Humidity;BMP_temperature;BMP_pressure;BME280_temperature;BME280_humidity;BME280_pressure;Samples;Min_cycle;Max_cycle;Signal;HPM_P1;HPM_P2
2022/11/14 00:01:05;;;;;;;62.13;27.50;;;;;;;;;;5065852;28;20066;-62
2022/11/14 00:03:31;;;;;;;61.90;27.93;;;;;;;;;;5056636;28;20771;-62
2022/11/14 00:05:57;;;;;;;67.20;27.90;;;;;;;;;;5057504;28;20062;-62
2022/11/14 00:08:24;;;;;;;67.27;28.87;;;;;;;;;;5063015;28;20048;-62
2022/11/14 00:10:50;;;;;;;67.70;28.90;;;;;;;;;;5052455;28;20055;-61
2022/11/14 00:13:17;;;;;;;64.80;30.07;;;;;;;;;;5050212;28;20440;-62
2022/11/14 00:15:44;;;;;;;67.03;30.20;;;;;;;;;;5068094;28;20044;-62
2022/11/14 00:18:10;;;;;;;65.23;29.40;;;;;;;;;;5058419;28;20398;-62
2022/11/14 00:20:37;;;;;;;63.53;28.37;;;;;;;;;;5060153;28;20552;-62
2022/11/14 00:23:03;;;;;;;74.00;33.60;;;;;;;;;;5067874;28;20056;-62
2022/11/14 00:25:29;;;;;;;66.50;30.30;;;;;;;;;;5067463;28;20091;-62
2022/11/14 00:27:58;;;;;;;63.13;30.63;;;;;;;;;;5063996;28;20507;-62
2022/11/14 00:30:25;;;;;;;63.80;29.97;;;;;;;;;;5066869;28;20067;-62
2022/11/14 00:32:51;;;;;;;64.53;32.90;;;;;;;;;;5049479;28;20055;-62
2022/11/14 00:35:17;;;;;;;59.53;28.10;;;;;;;;;;5053419;28;20056;-62
2022/11/14 00:37:43;;;;;;;66.77;31.33;;;;;;;;;;5050187;28;20053;-62
2022/11/14 00:40:09;;;;;;;67.07;31.80;;;;;;;;;;5050972;28;20051;-62
2022/11/14 00:42:35;;;;;;;67.87;30.37;;;;;;;;;;5057049;28;20087;-62
2022/11/14 00:45:01;;;;;;;66.20;30.80;;;;;;;;;;5059582;28;20132;-62
2022/11/14 00:47:28;;;;;;;62.40;31.97;;;;;;;;;;5064867;28;20170;-62
2022/11/14 00:49:54;;;;;;;72.10;34.20;;;;;;;;;;5062457;28;20048;-62
2022/11/14 00:52:20;;;;;;;64.83;30.83;;;;;;;;;;5054851;28;20052;-63
2022/11/14 00:54:46;;;;;;;59.13;30.20;;;;;;;;;;5066801;28;20056;-62
2022/11/14 00:57:12;;;;;;;66.10;32.63;;;;;;;;;;5056451;28;20490;-62
2022/11/14 00:59:38;;;;;;;62.77;31.57;;;;;;;;;;5062203;28;20431;-62
2022/11/14 01:02:04;;;;;;;66.77;32.37;;;;;;;;;;5049425;28;20045;-62
2022/11/14 01:04:30;;;;;;;76.37;34.90;;;;;;;;;;5059434;28;20044;-62
2022/11/14 01:06:56;;;;;;;68.77;34.17;;;;;;;;;;5060677;28;20041;-62
2022/11/14 01:09:22;;;;;;;74.37;34.73;;;;;;;;;;5065473;28;20055;-62
2022/11/14 01:11:48;;;;;;;69.80;35.37;;;;;;;;;;5066770;28;20432;-62
2022/11/14 01:14:14;;;;;;;77.57;36.37;;;;;;;;;;5053406;28;20512;-62
2022/11/14 01:16:40;;;;;;;71.23;34.93;;;;;;;;;;5051936;28;20443;-62
2022/11/14 01:19:06;;;;;;;75.80;35.67;;;;;;;;;;5069204;28;20101;-62
2022/11/14 01:21:32;;;;;;;69.63;33.97;;;;;;;;;;5067398;28;20049;-62
2022/11/14 01:23:58;;;;;;;68.67;34.37;;;;;;;;;;5061967;28;20910;-62
2022/11/14 01:26:25;;;;;;;79.03;35.57;;;;;;;;;;5049941;28;20044;-62
2022/11/14 01:28:51;;;;;;;75.37;36.70;;;;;;;;;;5055835;28;20051;-62
2022/11/14 01:31:19;;;;;;;77.43;35.70;;;;;;;;;;5065857;28;20048;-62
2022/11/14 01:33:47;;;;;;;78.10;36.03;;;;;;;;;;5054642;28;20412;-62
2022/11/14 01:36:13;;;;;;;72.97;35.63;;;;;;;;;;5065088;28;20418;-62
2022/11/14 01:38:40;;;;;;;82.57;35.97;;;;;;;;;;5052509;28;20052;-62
2022/11/14 01:41:06;;;;;;;88.37;39.53;;;;;;;;;;5066386;28;20044;-62
2022/11/14 01:43:33;;;;;;;87.80;38.70;;;;;;;;;;5067350;28;20055;-62
2022/11/14 01:46:18;;;;;;;89.57;39.70;;;;;;;;;;5068710;28;20127;-62
2022/11/14 01:49:04;;;;;;;94.53;41.83;;;;;;;;;;5068595;28;20048;-62
2022/11/14 01:51:32;;;;;;;91.37;40.03;;;;;;;;;;5067573;28;20110;-62
2022/11/14 01:53:59;;;;;;;90.93;39.63;;;;;;;;;;5059061;28;20053;-62
2022/11/14 01:56:47;;;;;;;96.03;42.13;;;;;;;;;;5055270;28;20094;-62
2022/11/14 01:59:17;;;;;;;97.93;42.13;;;;;;;;;;5055285;28;20072;-62
2022/11/14 02:01:48;;;;;;;98.80;40.57;;;;;;;;;;5048287;28;20625;-62
2022/11/14 02:04:17;;;;;;;110.50;45.17;;;;;;;;;;5058540;28;20597;-62
2022/11/14 02:06:44;;;;;;;107.73;44.50;;;;;;;;;;5068052;28;20048;-62
2022/11/14 02:09:10;;;;;;;114.27;46.33;;;;;;;;;;5054709;28;21020;-62
2022/11/14 02:11:38;;;;;;;111.37;45.50;;;;;;;;;;5061149;28;20208;-62
2022/11/14 02:14:04;;;;;;;116.70;47.57;;;;;;;;;;5068601;28;20044;-62
2022/11/14 02:16:30;;;;;;;112.23;45.60;;;;;;;;;;5058214;28;20106;-62
2022/11/14 02:18:56;;;;;;;97.83;44.33;;;;;;;;;;5048566;28;20045;-62
2022/11/14 02:21:22;;;;;;;108.73;43.53;;;;;;;;;;5048825;28;20049;-62
2022/11/14 02:23:48;;;;;;;106.00;45.63;;;;;;;;;;5049817;28;20561;-62
2022/11/14 02:26:21;;;;;;;108.30;45.43;;;;;;;;;;5067145;28;20491;-62
2022/11/14 02:28:48;;;;;;;118.18;45.38;;;;;;;;;;5063546;28;20037;-62
2022/11/14 02:31:14;;;;;;;115.83;46.30;;;;;;;;;;5048804;28;20086;-62
2022/11/14 02:33:41;;;;;;;119.97;46.47;;;;;;;;;;5049102;28;20036;-62
2022/11/14 02:36:07;;;;;;;115.23;46.97;;;;;;;;;;5056356;28;20091;-62
2022/11/14 02:38:33;;;;;;;119.60;47.60;;;;;;;;;;5066292;28;20521;-62
2022/11/14 02:41:00;;;;;;;108.90;46.00;;;;;;;;;;5056224;28;20047;-62
2022/11/14 02:43:26;;;;;;;116.37;47.07;;;;;;;;;;5050853;28;20076;-62
2022/11/14 02:45:52;;;;;;;114.03;47.83;;;;;;;;;;5058352;28;20037;-62
2022/11/14 02:48:18;;;;;;;126.43;48.63;;;;;;;;;;5068625;28;20470;-62
2022/11/14 02:50:47;;;;;;;121.53;51.17;;;;;;;;;;5058297;28;20057;-62
2022/11/14 02:53:13;;;;;;;126.10;47.00;;;;;;;;;;5052086;28;20191;-62
2022/11/14 02:55:39;;;;;;;117.00;49.87;;;;;;;;;;5051818;28;20045;-62
2022/11/14 02:58:06;;;;;;;121.60;48.47;;;;;;;;;;5051834;28;20511;-62
2022/11/14 03:00:32;;;;;;;117.67;46.80;;;;;;;;;;5065848;28;20052;-62
2022/11/14 03:02:58;;;;;;;119.87;48.77;;;;;;;;;;5071555;28;20114;-62
2022/11/14 03:05:24;;;;;;;113.47;47.03;;;;;;;;;;5053136;28;20060;-62
2022/11/14 03:07:54;;;;;;;104.43;48.30;;;;;;;;;;5052811;28;20116;-62
2022/11/14 03:10:21;;;;;;;109.63;47.03;;;;;;;;;;5069643;28;20044;-62
2022/11/14 03:12:47;;;;;;;109.47;45.13;;;;;;;;;;5071363;28;20048;-62
2022/11/14 03:15:13;;;;;;;99.97;45.10;;;;;;;;;;5070800;28;20075;-62
2022/11/14 03:17:39;;;;;;;102.90;44.50;;;;;;;;;;5069881;28;20046;-62
2022/11/14 03:20:06;;;;;;;102.83;43.83;;;;;;;;;;5070451;28;20059;-62
2022/11/14 03:22:33;;;;;;;106.80;45.37;;;;;;;;;;5071637;28;20064;-62
2022/11/14 03:24:59;;;;;;;99.73;47.50;;;;;;;;;;5054104;28;20051;-62
2022/11/14 03:27:25;;;;;;;99.47;45.33;;;;;;;;;;5051534;28;20541;-61
2022/11/14 03:29:51;;;;;;;103.93;46.50;;;;;;;;;;5050933;28;20080;-61
2022/11/14 03:32:17;;;;;;;103.37;44.30;;;;;;;;;;5053516;28;20049;-61
2022/11/14 03:34:43;;;;;;;103.50;44.73;;;;;;;;;;5061253;28;20127;-61
2022/11/14 03:37:09;;;;;;;102.63;44.47;;;;;;;;;;5051980;28;20077;-61
2022/11/14 03:39:35;;;;;;;107.53;47.27;;;;;;;;;;5052581;28;20132;-61
2022/11/14 03:42:01;;;;;;;109.03;46.93;;;;;;;;;;5051642;28;20156;-61
2022/11/14 03:44:28;;;;;;;105.63;46.03;;;;;;;;;;5061728;28;20510;-61
2022/11/14 03:46:54;;;;;;;105.70;47.07;;;;;;;;;;5071271;28;20053;-61
2022/11/14 03:49:20;;;;;;;111.50;48.97;;;;;;;;;;5062755;28;20507;-61
2022/11/14 03:51:46;;;;;;;111.10;49.17;;;;;;;;;;5061924;28;20048;-61
2022/11/14 03:54:12;;;;;;;115.17;48.03;;;;;;;;;;5061715;28;20048;-61
2022/11/14 03:56:38;;;;;;;112.67;49.80;;;;;;;;;;5050537;28;20049;-61
2022/11/14 03:59:04;;;;;;;118.07;48.97;;;;;;;;;;5053933;28;20048;-61
2022/11/14 04:01:30;;;;;;;115.27;48.47;;;;;;;;;;5068418;28;20052;-61
2022/11/14 04:03:56;;;;;;;109.00;46.23;;;;;;;;;;5050809;28;20049;-61
2022/11/14 04:06:22;;;;;;;113.77;47.80;;;;;;;;;;5059188;28;20043;-61
2022/11/14 04:08:50;;;;;;;107.17;46.57;;;;;;;;;;5068450;28;20072;-62
2022/11/14 04:11:16;;;;;;;122.87;50.33;;;;;;;;;;5069372;28;20127;-62
2022/11/14 04:13:42;;;;;;;122.00;50.23;;;;;;;;;;5070247;28;20056;-62
2022/11/14 04:16:08;;;;;;;106.97;48.63;;;;;;;;;;5068546;28;20127;-62
2022/11/14 04:18:34;;;;;;;117.70;48.83;;;;;;;;;;5053892;28;20064;-62
2022/11/14 04:21:00;;;;;;;122.73;47.40;;;;;;;;;;5056489;28;20559;-62
2022/11/14 04:23:26;;;;;;;117.90;50.33;;;;;;;;;;5069092;28;20063;-62
2022/11/14 04:25:53;;;;;;;117.97;50.40;;;;;;;;;;5065268;28;20044;-62
2022/11/14 04:28:19;;;;;;;121.67;48.43;;;;;;;;;;5049995;28;20106;-62
2022/11/14 04:30:45;;;;;;;112.83;48.53;;;;;;;;;;5049235;28;20115;-62
2022/11/14 04:33:11;;;;;;;112.03;48.37;;;;;;;;;;5050057;28;20049;-62
2022/11/14 04:35:37;;;;;;;118.37;47.57;;;;;;;;;;5051786;28;20075;-62
2022/11/14 04:38:03;;;;;;;111.80;47.13;;;;;;;;;;5056634;28;20385;-62
2022/11/14 04:40:29;;;;;;;105.17;46.63;;;;;;;;;;5066831;28;20119;-62
2022/11/14 04:42:55;;;;;;;111.03;47.93;;;;;;;;;;5056863;28;20041;-62
2022/11/14 04:45:21;;;;;;;102.60;45.50;;;;;;;;;;5049973;28;20045;-62
2022/11/14 04:47:48;;;;;;;100.63;45.33;;;;;;;;;;5051258;28;20503;-62
2022/11/14 04:50:14;;;;;;;101.33;44.57;;;;;;;;;;5052603;28;20045;-62
2022/11/14 04:52:40;;;;;;;98.13;44.87;;;;;;;;;;5053808;28;20048;-62
2022/11/14 04:55:06;;;;;;;102.17;44.80;;;;;;;;;;5064573;28;20064;-62
2022/11/14 04:57:32;;;;;;;101.30;47.60;;;;;;;;;;5067474;28;20053;-62
2022/11/14 04:59:58;;;;;;;98.40;44.63;;;;;;;;;;5060394;28;20446;-62
2022/11/14 05:02:24;;;;;;;96.63;45.20;;;;;;;;;;5066401;28;20048;-62
2022/11/14 05:04:50;;;;;;;95.47;45.50;;;;;;;;;;5064705;28;20518;-62
2022/11/14 05:07:16;;;;;;;103.13;45.33;;;;;;;;;;5055635;28;20131;-62
2022/11/14 05:09:42;;;;;;;90.90;42.20;;;;;;;;;;5060486;28;20052;-62
2022/11/14 05:12:08;;;;;;;91.07;45.50;;;;;;;;;;5066704;28;20057;-62
2022/11/14 05:14:34;;;;;;;98.37;43.70;;;;;;;;;;5049408;28;20084;-62
2022/11/14 05:17:00;;;;;;;90.73;44.90;;;;;;;;;;5049583;28;20048;-62
2022/11/14 05:19:26;;;;;;;98.43;43.57;;;;;;;;;;5050565;28;20503;-62
2022/11/14 05:21:52;;;;;;;96.27;43.53;;;;;;;;;;5050545;28;20387;-62
2022/11/14 05:24:19;;;;;;;98.83;43.17;;;;;;;;;;5065183;28;20055;-62
2022/11/14 05:26:45;;;;;;;98.67;44.17;;;;;;;;;;5069185;28;20132;-62
2022/11/14 05:29:11;;;;;;;101.83;45.53;;;;;;;;;;5063209;28;20043;-62
2022/11/14 05:31:37;;;;;;;96.00;44.07;;;;;;;;;;5053327;28;20432;-62
2022/11/14 05:34:03;;;;;;;100.87;42.67;;;;;;;;;;5060869;28;20629;-62
2022/11/14 05:36:29;;;;;;;102.77;44.17;;;;;;;;;;5047748;28;20094;-62
2022/11/14 05:38:55;;;;;;;99.40;44.30;;;;;;;;;;5057919;28;20051;-62
2022/11/14 05:41:21;;;;;;;94.50;46.53;;;;;;;;;;5068029;28;20557;-62
2022/11/14 05:43:47;;;;;;;104.53;45.00;;;;;;;;;;5069057;28;20040;-62
2022/11/14 05:46:15;;;;;;;100.10;45.33;;;;;;;;;;5058674;28;20044;-62
2022/11/14 05:48:41;;;;;;;99.87;44.13;;;;;;;;;;5047431;28;20502;-62
2022/11/14 05:51:09;;;;;;;104.83;44.80;;;;;;;;;;5064106;28;20086;-62
2022/11/14 05:53:35;;;;;;;97.20;42.93;;;;;;;;;;5067115;28;20059;-62
2022/11/14 05:56:05;;;;;;;105.60;45.10;;;;;;;;;;5065536;28;20040;-64
2022/11/14 05:58:32;;;;;;;97.17;44.30;;;;;;;;;;5065200;28;20044;-62
2022/11/14 06:01:05;;;;;;;105.63;46.50;;;;;;;;;;5050499;28;20047;-62
2022/11/14 06:03:32;;;;;;;100.95;45.15;;;;;;;;;;5065692;28;20049;-62
2022/11/14 06:05:59;;;;;;;93.40;43.70;;;;;;;;;;5055363;28;20048;-62
2022/11/14 06:08:27;;;;;;;101.23;44.57;;;;;;;;;;5049908;28;20049;-62
2022/11/14 06:10:53;;;;;;;101.27;45.37;;;;;;;;;;5048536;28;20048;-62
2022/11/14 06:13:19;;;;;;;108.90;45.63;;;;;;;;;;5056526;28;20063;-62
2022/11/14 06:15:45;;;;;;;101.13;46.53;;;;;;;;;;5066695;28;20044;-62
2022/11/14 06:18:11;;;;;;;97.80;45.57;;;;;;;;;;5051241;28;20499;-62
2022/11/14 06:20:37;;;;;;;99.47;46.13;;;;;;;;;;5067747;28;20526;-62
2022/11/14 06:23:04;;;;;;;105.20;46.30;;;;;;;;;;5050913;28;20122;-62
2022/11/14 06:25:30;;;;;;;97.67;45.57;;;;;;;;;;5064386;28;20058;-62
2022/11/14 06:27:57;;;;;;;98.77;45.03;;;;;;;;;;5048403;28;20056;-62
2022/11/14 06:30:23;;;;;;;100.43;46.67;;;;;;;;;;5053037;28;20493;-62
2022/11/14 06:32:49;;;;;;;107.20;47.27;;;;;;;;;;5048384;28;20045;-62
2022/11/14 06:35:16;;;;;;;109.20;46.90;;;;;;;;;;5048400;28;20045;-62
2022/11/14 06:37:42;;;;;;;117.90;47.57;;;;;;;;;;5049403;28;20056;-62
2022/11/14 06:40:08;;;;;;;103.47;47.10;;;;;;;;;;5058171;28;20032;-62
2022/11/14 06:42:34;;;;;;;107.77;46.57;;;;;;;;;;5053825;28;20514;-62
2022/11/14 06:45:00;;;;;;;114.10;49.30;;;;;;;;;;5048188;28;20120;-62
2022/11/14 06:47:26;;;;;;;112.03;48.27;;;;;;;;;;5055926;28;20045;-62
2022/11/14 06:49:52;;;;;;;118.17;47.93;;;;;;;;;;5052659;28;20044;-62
2022/11/14 06:52:18;;;;;;;114.93;47.20;;;;;;;;;;5067295;28;20075;-62
2022/11/14 06:54:44;;;;;;;113.97;47.10;;;;;;;;;;5067984;28;20056;-62
2022/11/14 06:57:11;;;;;;;118.00;46.10;;;;;;;;;;5065999;28;20045;-62
2022/11/14 06:59:37;;;;;;;119.50;46.17;;;;;;;;;;5059644;28;20044;-62
2022/11/14 07:02:03;;;;;;;133.60;50.07;;;;;;;;;;5061084;28;20055;-62
2022/11/14 07:04:29;;;;;;;131.97;51.33;;;;;;;;;;5050853;28;20106;-62
2022/11/14 07:06:55;;;;;;;123.67;48.17;;;;;;;;;;5065006;28;20048;-62
2022/11/14 07:09:21;;;;;;;124.03;50.30;;;;;;;;;;5064621;28;20041;-62
2022/11/14 07:11:47;;;;;;;131.13;46.67;;;;;;;;;;5064334;28;20063;-62
2022/11/14 07:14:13;;;;;;;137.03;50.93;;;;;;;;;;5067091;28;20060;-62
2022/11/14 07:16:39;;;;;;;136.63;52.53;;;;;;;;;;5067944;28;20056;-62
2022/11/14 07:19:08;;;;;;;139.60;49.93;;;;;;;;;;5067627;28;20044;-62
2022/11/14 07:21:34;;;;;;;135.23;48.57;;;;;;;;;;5067663;28;20052;-62
2022/11/14 07:24:00;;;;;;;141.70;50.73;;;;;;;;;;5067411;28;20044;-62
2022/11/14 07:26:27;;;;;;;133.23;49.60;;;;;;;;;;5067399;28;20040;-62
2022/11/14 07:28:53;;;;;;;145.70;51.07;;;;;;;;;;5055226;28;20051;-62
2022/11/14 07:31:19;;;;;;;147.57;54.87;;;;;;;;;;5065968;28;20048;-62
2022/11/14 07:33:46;;;;;;;149.60;55.27;;;;;;;;;;5069435;28;20101;-62
2022/11/14 07:36:13;;;;;;;142.80;49.40;;;;;;;;;;5068746;28;20048;-62
2022/11/14 07:38:39;;;;;;;146.83;51.13;;;;;;;;;;5069783;28;20048;-62
2022/11/14 07:41:06;;;;;;;141.73;51.00;;;;;;;;;;5068948;28;20052;-61
2022/11/14 07:43:32;;;;;;;134.27;48.57;;;;;;;;;;5068447;28;20041;-62
2022/11/14 07:46:00;;;;;;;133.60;50.00;;;;;;;;;;5067114;28;20106;-62
2022/11/14 07:48:26;;;;;;;139.57;51.43;;;;;;;;;;5067225;28;20048;-62
2022/11/14 07:50:52;;;;;;;144.67;50.97;;;;;;;;;;5068204;28;20122;-62
2022/11/14 07:53:18;;;;;;;134.50;52.17;;;;;;;;;;5068898;28;20056;-62
2022/11/14 07:55:44;;;;;;;142.23;49.87;;;;;;;;;;5069604;28;20439;-62
2022/11/14 07:58:11;;;;;;;143.30;56.33;;;;;;;;;;5060042;28;20045;-62
2022/11/14 08:00:37;;;;;;;126.43;49.03;;;;;;;;;;5050234;28;20049;-62
2022/11/14 08:03:03;;;;;;;138.47;52.67;;;;;;;;;;5056777;28;20060;-63
2022/11/14 08:05:29;;;;;;;141.53;50.10;;;;;;;;;;5064697;28;20049;-62
2022/11/14 08:07:55;;;;;;;137.27;54.07;;;;;;;;;;5055461;28;20053;-62
2022/11/14 08:10:21;;;;;;;130.77;50.37;;;;;;;;;;5066934;28;20051;-62
2022/11/14 08:12:47;;;;;;;119.60;47.07;;;;;;;;;;5069117;28;20094;-62
2022/11/14 08:15:13;;;;;;;124.13;48.67;;;;;;;;;;5066688;28;20372;-62
2022/11/14 08:17:40;;;;;;;110.77;44.57;;;;;;;;;;5069633;28;20445;-62
2022/11/14 08:20:07;;;;;;;113.50;45.33;;;;;;;;;;5068357;28;20044;-62
2022/11/14 08:22:33;;;;;;;105.10;45.30;;;;;;;;;;5069951;28;20048;-62
2022/11/14 08:24:59;;;;;;;97.07;42.30;;;;;;;;;;5056478;28;20127;-62
2022/11/14 08:27:25;;;;;;;96.27;44.47;;;;;;;;;;5049514;28;20151;-62
2022/11/14 08:29:52;;;;;;;97.17;43.37;;;;;;;;;;5049655;28;20045;-62
2022/11/14 08:32:21;;;;;;;97.27;41.83;;;;;;;;;;5049866;28;20045;-62
2022/11/14 08:34:47;;;;;;;93.43;40.20;;;;;;;;;;5048464;28;20045;-62
2022/11/14 08:37:13;;;;;;;84.30;41.43;;;;;;;;;;5049326;28;20154;-62
2022/11/14 08:39:39;;;;;;;78.00;40.70;;;;;;;;;;5061485;28;20411;-62
2022/11/14 08:42:05;;;;;;;79.97;39.83;;;;;;;;;;5069550;28;20044;-62
2022/11/14 08:44:31;;;;;;;80.57;39.20;;;;;;;;;;5069354;28;20048;-62
2022/11/14 08:46:59;;;;;;;77.80;39.63;;;;;;;;;;5048939;28;20072;-62
2022/11/14 08:49:25;;;;;;;74.10;38.57;;;;;;;;;;5048085;28;20109;-62
2022/11/14 08:51:52;;;;;;;81.10;38.93;;;;;;;;;;5059430;28;20136;-62
2022/11/14 08:54:18;;;;;;;73.10;35.90;;;;;;;;;;5050115;28;20049;-62
2022/11/14 08:56:44;;;;;;;69.10;36.20;;;;;;;;;;5055389;28;20306;-62
2022/11/14 08:59:10;;;;;;;64.73;34.93;;;;;;;;;;5066345;28;20040;-62
2022/11/14 09:01:36;;;;;;;68.00;34.83;;;;;;;;;;5062103;28;20093;-62
2022/11/14 09:04:03;;;;;;;65.73;35.27;;;;;;;;;;5055317;28;20457;-62
2022/11/14 09:06:29;;;;;;;65.70;29.53;;;;;;;;;;5057293;28;20128;-62
2022/11/14 09:08:55;;;;;;;62.10;35.53;;;;;;;;;;5058995;28;20502;-62
2022/11/14 09:11:21;;;;;;;61.63;31.93;;;;;;;;;;5067041;28;20055;-62
2022/11/14 09:13:47;;;;;;;56.43;29.57;;;;;;;;;;5066746;28;20051;-62
2022/11/14 09:16:13;;;;;;;62.10;33.30;;;;;;;;;;5066883;28;20048;-62
2022/11/14 09:18:40;;;;;;;58.03;31.77;;;;;;;;;;5066564;28;20409;-62
2022/11/14 09:21:07;;;;;;;63.20;32.23;;;;;;;;;;5066701;28;20110;-61
2022/11/14 09:23:33;;;;;;;54.93;31.27;;;;;;;;;;5064943;28;20353;-62
2022/11/14 09:26:04;;;;;;;54.50;29.67;;;;;;;;;;5068390;28;20136;-62
2022/11/14 09:28:30;;;;;;;48.73;27.53;;;;;;;;;;5068341;28;20049;-62
2022/11/14 09:31:00;;;;;;;51.83;27.83;;;;;;;;;;5066325;28;20942;-62
2022/11/14 09:33:26;;;;;;;44.13;25.83;;;;;;;;;;5067137;28;20048;-62
2022/11/14 09:35:56;;;;;;;41.63;24.23;;;;;;;;;;5068358;28;20048;-62
2022/11/14 09:38:22;;;;;;;46.10;25.80;;;;;;;;;;5068155;28;20041;-62
2022/11/14 09:40:48;;;;;;;46.13;27.43;;;;;;;;;;5068287;28;20044;-62
2022/11/14 09:43:33;;;;;;;41.17;23.50;;;;;;;;;;5067701;28;20473;-62
2022/11/14 09:46:00;;;;;;;38.90;24.03;;;;;;;;;;5067987;28;20052;-62
2022/11/14 09:48:28;;;;;;;40.47;24.13;;;;;;;;;;5068401;28;20564;-62
2022/11/14 09:51:08;;;;;;;42.77;24.60;;;;;;;;;;5067930;28;20121;-62
2022/11/14 09:53:36;;;;;;;43.93;25.87;;;;;;;;;;5067575;28;20055;-62
2022/11/14 09:56:02;;;;;;;39.93;24.67;;;;;;;;;;5067457;28;20068;-63
2022/11/14 09:58:28;;;;;;;35.73;21.67;;;;;;;;;;5067943;28;20580;-63
2022/11/14 10:00:57;;;;;;;38.07;22.40;;;;;;;;;;5068008;28;20047;-62
2022/11/14 10:03:37;;;;;;;41.27;22.17;;;;;;;;;;5067872;28;20116;-62
2022/11/14 10:06:06;;;;;;;35.07;21.23;;;;;;;;;;5067667;28;20503;-62
2022/11/14 10:08:39;;;;;;;35.70;21.03;;;;;;;;;;5067424;28;20098;-62
2022/11/14 10:11:33;;;;;;;35.03;21.27;;;;;;;;;;5066327;28;20045;-62
2022/11/14 10:14:18;;;;;;;32.57;20.83;;;;;;;;;;5067488;28;20066;-62
2022/11/14 10:16:51;;;;;;;39.40;21.73;;;;;;;;;;5067380;28;20052;-62
2022/11/14 10:19:30;;;;;;;39.13;23.02;;;;;;;;;;5067247;28;20040;-62
2022/11/14 10:22:20;;;;;;;37.03;21.30;;;;;;;;;;5067943;28;20045;-62
2022/11/14 10:24:47;;;;;;;32.50;19.50;;;;;;;;;;5067317;28;20135;-62
2022/11/14 10:27:22;;;;;;;39.67;22.13;;;;;;;;;;5067449;28;20115;-62
2022/11/14 10:30:06;;;;;;;35.90;21.93;;;;;;;;;;5067196;28;20094;-62
2022/11/14 10:32:32;;;;;;;36.33;20.87;;;;;;;;;;5067560;28;20067;-62
2022/11/14 10:35:14;;;;;;;34.00;21.53;;;;;;;;;;5067785;28;20417;-62
2022/11/14 10:37:52;;;;;;;35.67;22.80;;;;;;;;;;5067886;28;20243;-62
2022/11/14 10:40:21;;;;;;;32.43;20.43;;;;;;;;;;5067584;28;20127;-62
2022/11/14 10:42:50;;;;;;;28.57;19.13;;;;;;;;;;5066977;28;20110;-62
2022/11/14 10:45:16;;;;;;;31.67;19.20;;;;;;;;;;5067628;28;20036;-62
2022/11/14 10:47:45;;;;;;;34.30;21.47;;;;;;;;;;5067048;28;20058;-62
2022/11/14 10:50:23;;;;;;;35.10;21.03;;;;;;;;;;5067419;28;20387;-63
2022/11/14 10:52:50;;;;;;;33.60;21.53;;;;;;;;;;5067654;28;20036;-62
2022/11/14 10:55:17;;;;;;;35.33;20.73;;;;;;;;;;5067195;28;20059;-63
2022/11/14 10:57:47;;;;;;;30.27;19.87;;;;;;;;;;5067200;28;20395;-62
2022/11/14 11:00:14;;;;;;;30.57;20.37;;;;;;;;;;5067561;28;20133;-62
2022/11/14 11:02:48;;;;;;;34.80;19.97;;;;;;;;;;5067330;28;20047;-62
2022/11/14 11:05:16;;;;;;;29.67;20.13;;;;;;;;;;5070931;28;20045;-62
2022/11/14 11:13:28;;;;;;;29.23;18.07;;;;;;;;;;5070749;28;20052;-62
2022/11/14 11:15:55;;;;;;;28.07;17.87;;;;;;;;;;5071193;28;20044;-62
2022/11/14 11:18:32;;;;;;;27.97;19.43;;;;;;;;;;5070973;28;20036;-62
2022/11/14 11:21:04;;;;;;;27.97;18.77;;;;;;;;;;5069053;28;20055;-62
2022/11/14 11:23:30;;;;;;;29.27;19.40;;;;;;;;;;5070585;28;20048;-62
2022/11/14 11:26:07;;;;;;;28.93;18.50;;;;;;;;;;5070395;28;20052;-62
2022/11/14 11:28:34;;;;;;;29.17;19.57;;;;;;;;;;5070517;28;20525;-62
2022/11/14 11:31:10;;;;;;;31.10;18.83;;;;;;;;;;5069868;28;20525;-62
2022/11/14 11:33:37;;;;;;;29.97;18.90;;;;;;;;;;5070466;28;20044;-62
2022/11/14 11:36:11;;;;;;;29.33;19.00;;;;;;;;;;5070341;28;20127;-63
2022/11/14 11:38:37;;;;;;;25.23;18.10;;;;;;;;;;5070055;28;20048;-62
2022/11/14 11:41:06;;;;;;;27.03;19.47;;;;;;;;;;5070605;28;20442;-62
2022/11/14 11:43:39;;;;;;;29.93;18.13;;;;;;;;;;5070373;28;20049;-62
2022/11/14 11:46:10;;;;;;;29.67;18.40;;;;;;;;;;5070335;28;20055;-62
2022/11/14 11:48:39;;;;;;;27.40;18.23;;;;;;;;;;5069566;28;20452;-62
2022/11/14 11:51:06;;;;;;;26.47;16.77;;;;;;;;;;5070202;28;20052;-62
2022/11/14 11:53:41;;;;;;;29.00;17.97;;;;;;;;;;5070018;28;20556;-62
2022/11/14 11:56:19;;;;;;;25.27;17.33;;;;;;;;;;5070071;28;20359;-62
2022/11/14 11:58:48;;;;;;;31.87;19.07;;;;;;;;;;5069562;28;20055;-63
2022/11/14 12:01:15;;;;;;;25.37;17.13;;;;;;;;;;5069938;28;20047;-62
2022/11/14 12:03:49;;;;;;;27.37;17.27;;;;;;;;;;5069674;28;20092;-62
2022/11/14 12:06:28;;;;;;;24.73;16.80;;;;;;;;;;5070108;28;20644;-62
2022/11/14 12:09:14;;;;;;;21.87;15.83;;;;;;;;;;5069456;28;20095;-62
2022/11/14 12:11:42;;;;;;;24.50;16.00;;;;;;;;;;5069598;28;20086;-62
2022/11/14 12:14:14;;;;;;;26.07;17.40;;;;;;;;;;5066764;28;20052;-62
2022/11/14 12:16:59;;;;;;;27.10;17.40;;;;;;;;;;5051488;28;20045;-62
2022/11/14 12:19:36;;;;;;;21.63;15.50;;;;;;;;;;5065479;28;20090;-62
2022/11/14 12:22:21;;;;;;;21.50;16.23;;;;;;;;;;5069259;28;20044;-62
2022/11/14 12:25:06;;;;;;;21.23;15.27;;;;;;;;;;5052545;28;20564;-62
2022/11/14 12:27:34;;;;;;;22.77;16.03;;;;;;;;;;5049827;28;20044;-62
2022/11/14 12:30:04;;;;;;;22.50;15.47;;;;;;;;;;5049680;28;20448;-62
2022/11/14 12:32:53;;;;;;;23.37;15.37;;;;;;;;;;5049510;28;20084;-63
2022/11/14 12:35:22;;;;;;;23.97;15.23;;;;;;;;;;5046641;28;20060;-62
2022/11/14 12:37:49;;;;;;;20.00;14.53;;;;;;;;;;5048569;28;20049;-62
2022/11/14 12:40:23;;;;;;;22.43;16.10;;;;;;;;;;5049540;28;20060;-62
2022/11/14 12:42:49;;;;;;;23.50;15.47;;;;;;;;;;5068593;28;20437;-62
2022/11/14 12:45:34;;;;;;;21.00;13.70;;;;;;;;;;5058650;28;20408;-62
2022/11/14 12:48:15;;;;;;;18.33;13.43;;;;;;;;;;5054733;28;20040;-62
2022/11/14 12:50:42;;;;;;;18.67;13.93;;;;;;;;;;5066871;28;20443;-62
2022/11/14 12:53:34;;;;;;;20.23;13.53;;;;;;;;;;5057819;28;20043;-62
2022/11/14 12:56:30;;;;;;;20.47;13.73;;;;;;;;;;5060341;28;20086;-63
2022/11/14 12:59:15;;;;;;;20.73;13.47;;;;;;;;;;5058861;28;20514;-62
2022/11/14 13:01:46;;;;;;;19.33;13.70;;;;;;;;;;5049254;28;20566;-63
2022/11/14 13:04:25;;;;;;;20.90;13.87;;;;;;;;;;5067731;28;20058;-62
2022/11/14 13:06:54;;;;;;;20.00;14.70;;;;;;;;;;5052717;28;20461;-62
2022/11/14 13:09:41;;;;;;;19.40;13.33;;;;;;;;;;5058452;28;20043;-62
2022/11/14 13:24:00;;;;;;;18.30;14.07;;;;;;;;;;5033926;28;20453;-62
2022/11/14 13:26:26;;;;;;;18.73;13.60;;;;;;;;;;5060164;28;20140;-62
2022/11/14 13:28:52;;;;;;;19.07;13.40;;;;;;;;;;5065291;28;20601;-62
2022/11/14 13:31:23;;;;;;;15.40;12.40;;;;;;;;;;5053087;28;20056;-63
2022/11/14 13:33:51;;;;;;;19.10;12.80;;;;;;;;;;5068150;28;20043;-62
2022/11/14 13:36:20;;;;;;;18.93;13.07;;;;;;;;;;5067194;28;20040;-62
2022/11/14 13:39:09;;;;;;;18.80;13.43;;;;;;;;;;5061819;28;20051;-62
2022/11/14 13:41:50;;;;;;;18.77;13.23;;;;;;;;;;5065260;28;20421;-62
2022/11/14 13:44:35;;;;;;;16.43;12.80;;;;;;;;;;5067638;28;20036;-63
2022/11/14 13:47:04;;;;;;;18.70;12.53;;;;;;;;;;5067421;28;20041;-62
2022/11/14 13:49:48;;;;;;;16.73;11.50;;;;;;;;;;5068231;28;20485;-62
2022/11/14 13:52:15;;;;;;;15.47;11.87;;;;;;;;;;5067887;28;20097;-62
2022/11/14 13:54:48;;;;;;;16.33;12.00;;;;;;;;;;5068214;28;20083;-63
2022/11/14 13:57:17;;;;;;;16.13;12.07;;;;;;;;;;5060901;28;20048;-62
2022/11/14 13:59:57;;;;;;;16.63;11.83;;;;;;;;;;5047046;28;20459;-62
2022/11/14 14:02:36;;;;;;;14.80;11.57;;;;;;;;;;5059079;28;20135;-62
2022/11/14 14:05:16;;;;;;;15.90;11.23;;;;;;;;;;5068266;28;20094;-62
2022/11/14 14:07:42;;;;;;;17.07;12.47;;;;;;;;;;5068152;28;20055;-62
2022/11/14 14:10:24;;;;;;;17.60;11.90;;;;;;;;;;5068106;28;20045;-62
2022/11/14 14:12:57;;;;;;;15.20;11.93;;;;;;;;;;5052805;28;20044;-62
2022/11/14 14:15:42;;;;;;;15.90;12.20;;;;;;;;;;5067341;28;20044;-62
2022/11/14 14:18:40;;;;;;;16.77;11.97;;;;;;;;;;5064569;28;20490;-62
2022/11/14 14:21:22;;;;;;;17.43;12.70;;;;;;;;;;5059234;28;20098;-62
2022/11/14 14:23:54;;;;;;;15.93;12.07;;;;;;;;;;5061426;28;20059;-62
2022/11/14 14:26:26;;;;;;;16.20;12.60;;;;;;;;;;5052017;28;20045;-62
2022/11/14 14:29:18;;;;;;;19.27;13.27;;;;;;;;;;5067993;28;20044;-62
2022/11/14 14:31:44;;;;;;;21.13;13.60;;;;;;;;;;5045819;28;20473;-62
2022/11/14 14:34:30;;;;;;;18.47;12.67;;;;;;;;;;5054666;28;20037;-62
2022/11/14 14:36:57;;;;;;;18.37;13.10;;;;;;;;;;5067909;28;20084;-62
2022/11/14 14:39:27;;;;;;;17.47;13.77;;;;;;;;;;5059434;28;20200;-62